Time;durP1;ratioP1;P1;durP2;ratioP2;P2;SDS_P1;SDS_P2;PMS_P1;PMS_P2;Temp;Humidity;BMP_temperature;BMP_pressure;BME280_temperature;BME280_humidity;BME280_pressure;Samples;Min_cycle;Max_cycle;Signal;HPM_P1;HPM_P2
2023/12/21 00:01:40;;;;;;;2.53;1.10;;;4.00;99.90;;;;;;5006602;28;20034;-84
2023/12/21 00:04:06;;;;;;;4.17;1.20;;;4.00;99.90;;;;;;5006985;28;20427;-83
2023/12/21 00:06:32;;;;;;;3.03;1.20;;;4.00;99.90;;;;;;5005076;28;20576;-83
2023/12/21 00:08:58;;;;;;;3.47;1.17;;;4.00;99.90;;;;;;5007770;28;20128;-83
2023/12/21 00:11:23;;;;;;;3.03;1.10;;;4.10;99.90;;;;;;5009844;28;20049;-83
2023/12/21 00:13:49;;;;;;;1.60;1.10;;;4.10;99.90;;;;;;5007179;28;20041;-83
2023/12/21 00:16:16;;;;;;;2.30;1.40;;;4.20;99.90;;;;;;5009599;28;20531;-83
2023/12/21 00:18:42;;;;;;;2.07;1.07;;;4.20;99.90;;;;;;5005251;28;21203;-83
2023/12/21 00:21:07;;;;;;;4.93;1.80;;;4.20;99.90;;;;;;5005627;28;20030;-83
2023/12/21 00:23:34;;;;;;;2.83;1.30;;;4.20;99.90;;;;;;5005639;28;20057;-84
2023/12/21 00:26:00;;;;;;;1.60;1.10;;;4.30;99.90;;;;;;5003848;28;20088;-84
2023/12/21 00:28:25;;;;;;;1.93;0.93;;;4.30;99.90;;;;;;5005480;28;20034;-83
2023/12/21 00:30:51;;;;;;;4.20;1.10;;;4.20;99.90;;;;;;5004038;28;20030;-83
2023/12/21 00:33:16;;;;;;;4.23;1.13;;;4.20;99.90;;;;;;5005424;28;20044;-83
2023/12/21 00:35:42;;;;;;;3.27;1.40;;;4.20;99.90;;;;;;5006504;28;20061;-83
2023/12/21 00:38:07;;;;;;;1.23;0.80;;;4.20;99.90;;;;;;5004079;28;20044;-83
2023/12/21 00:40:33;;;;;;;1.60;0.90;;;4.20;99.90;;;;;;5003066;28;20354;-83
2023/12/21 00:42:58;;;;;;;2.63;1.10;;;4.20;99.90;;;;;;5004245;28;21063;-84
2023/12/21 00:45:24;;;;;;;1.87;1.00;;;4.20;99.90;;;;;;5006685;28;20037;-83
2023/12/21 00:47:49;;;;;;;2.30;0.93;;;4.20;99.90;;;;;;5006399;28;20026;-83
2023/12/21 00:50:15;;;;;;;2.03;1.00;;;4.30;99.90;;;;;;5003749;28;20108;-83
2023/12/21 00:52:41;;;;;;;2.40;1.20;;;4.20;99.90;;;;;;5002959;28;21184;-84
2023/12/21 00:55:07;;;;;;;1.87;1.03;;;4.20;99.90;;;;;;5005254;28;20487;-83
2023/12/21 00:57:33;;;;;;;3.40;1.10;;;4.30;99.90;;;;;;5005563;28;20098;-82
2023/12/21 00:59:58;;;;;;;2.73;1.10;;;4.30;99.90;;;;;;5010898;28;20055;-84
2023/12/21 01:02:24;;;;;;;2.13;1.03;;;4.30;99.90;;;;;;4991252;28;20664;-83
2023/12/21 01:04:49;;;;;;;3.23;1.10;;;4.30;99.90;;;;;;5005579;28;20036;-83
2023/12/21 01:07:15;;;;;;;1.87;1.00;;;4.30;99.90;;;;;;5010376;28;20117;-83
2023/12/21 01:09:40;;;;;;;2.83;1.00;;;4.30;99.90;;;;;;5002764;28;20048;-83
2023/12/21 01:12:06;;;;;;;2.80;0.90;;;4.30;99.90;;;;;;5005493;28;20064;-83
2023/12/21 01:14:32;;;;;;;2.57;1.00;;;4.40;99.90;;;;;;5005551;28;20042;-83
2023/12/21 01:16:57;;;;;;;1.43;0.90;;;4.40;99.90;;;;;;5003787;28;20094;-84
2023/12/21 01:19:23;;;;;;;2.47;1.07;;;4.40;99.90;;;;;;5004351;28;20048;-84
2023/12/21 01:21:48;;;;;;;1.80;1.00;;;4.40;99.90;;;;;;5004672;28;20021;-84
2023/12/21 01:24:14;;;;;;;1.63;0.70;;;4.40;99.90;;;;;;5005385;28;20124;-84
2023/12/21 01:26:40;;;;;;;3.20;1.57;;;4.40;99.90;;;;;;5005225;28;20037;-83
2023/12/21 01:29:06;;;;;;;3.60;0.97;;;4.40;99.90;;;;;;5008807;28;20036;-83
2023/12/21 01:31:31;;;;;;;1.70;0.90;;;4.40;99.90;;;;;;5004917;28;20026;-84
2023/12/21 01:33:57;;;;;;;1.50;1.13;;;4.50;99.90;;;;;;5004877;28;21418;-84
2023/12/21 01:36:22;;;;;;;2.07;1.40;;;4.50;99.90;;;;;;5003456;28;20149;-84
2023/12/21 01:38:48;;;;;;;3.07;1.00;;;4.50;99.90;;;;;;5004139;28;20030;-83
2023/12/21 01:41:13;;;;;;;1.17;1.00;;;4.40;99.90;;;;;;5002707;28;20040;-84
2023/12/21 01:43:39;;;;;;;3.50;1.10;;;4.40;99.90;;;;;;5003979;28;20469;-84
2023/12/21 01:46:04;;;;;;;2.27;1.20;;;4.40;99.90;;;;;;5002277;28;20037;-84
2023/12/21 01:48:31;;;;;;;2.43;0.80;;;4.40;99.90;;;;;;5003739;28;20037;-84
2023/12/21 01:50:58;;;;;;;2.27;0.90;;;4.40;99.90;;;;;;5004488;28;20041;-83
2023/12/21 01:53:24;;;;;;;1.13;0.90;;;4.40;99.90;;;;;;5003727;28;20037;-83
2023/12/21 01:55:50;;;;;;;2.27;1.00;;;4.50;99.90;;;;;;5006109;28;20034;-84
2023/12/21 01:58:16;;;;;;;1.43;0.87;;;4.40;99.90;;;;;;5004484;28;20327;-84
2023/12/21 02:00:42;;;;;;;1.10;0.80;;;4.40;99.90;;;;;;5003831;28;20492;-84
2023/12/21 02:03:08;;;;;;;1.83;0.90;;;4.40;99.90;;;;;;5004669;28;20129;-83
2023/12/21 02:05:34;;;;;;;2.17;0.90;;;4.30;99.90;;;;;;5002934;28;20047;-83
2023/12/21 02:07:59;;;;;;;2.47;0.80;;;4.40;99.90;;;;;;5003337;28;20045;-83
2023/12/21 02:10:25;;;;;;;0.87;0.83;;;4.40;99.90;;;;;;5003947;28;20034;-82
2023/12/21 02:12:50;;;;;;;1.57;0.90;;;4.40;99.90;;;;;;5003144;28;21211;-83
2023/12/21 02:15:16;;;;;;;1.03;0.90;;;4.30;99.90;;;;;;5002358;28;20036;-82
2023/12/21 02:17:46;;;;;;;1.77;0.90;;;4.30;99.90;;;;;;5001879;28;20087;-82
2023/12/21 02:20:12;;;;;;;2.20;1.00;;;4.20;99.90;;;;;;5000375;28;20060;-82
2023/12/21 02:22:41;;;;;;;3.00;0.83;;;4.30;99.90;;;;;;4999652;28;20104;-82
2023/12/21 02:25:07;;;;;;;1.07;0.80;;;4.20;99.90;;;;;;4999955;28;20038;-83
2023/12/21 02:27:33;;;;;;;1.10;0.90;;;4.10;99.90;;;;;;4999548;28;20392;-83
2023/12/21 02:29:59;;;;;;;1.50;1.00;;;4.10;99.90;;;;;;5000820;28;20026;-83
2023/12/21 02:32:24;;;;;;;2.30;0.97;;;4.10;99.90;;;;;;4999997;28;20057;-83
2023/12/21 02:34:50;;;;;;;1.70;1.10;;;4.00;99.90;;;;;;4999624;28;20436;-82
2023/12/21 02:37:15;;;;;;;0.83;0.80;;;3.90;99.90;;;;;;5003266;28;20054;-83
2023/12/21 02:39:41;;;;;;;0.80;0.80;;;3.90;99.90;;;;;;4987258;28;20048;-82
2023/12/21 02:42:06;;;;;;;1.37;0.90;;;3.90;99.90;;;;;;5003684;28;20041;-83
2023/12/21 02:44:32;;;;;;;1.27;1.10;;;3.90;99.90;;;;;;5003490;28;20034;-82
2023/12/21 02:46:58;;;;;;;1.27;1.00;;;3.90;99.90;;;;;;5001540;28;20137;-83
2023/12/21 02:49:24;;;;;;;1.83;1.00;;;3.90;99.90;;;;;;5002591;28;20026;-83
2023/12/21 02:51:49;;;;;;;2.00;0.90;;;3.90;99.90;;;;;;5003507;28;20099;-83
2023/12/21 02:54:15;;;;;;;1.10;1.00;;;3.90;99.90;;;;;;5004361;28;20397;-82
2023/12/21 02:56:41;;;;;;;1.17;0.90;;;3.90;99.90;;;;;;5002228;28;20037;-82
2023/12/21 02:59:06;;;;;;;1.00;0.90;;;3.90;99.90;;;;;;5006393;28;20033;-82
2023/12/21 03:01:32;;;;;;;1.20;1.10;;;3.90;99.90;;;;;;5005468;28;20515;-83
2023/12/21 03:03:59;;;;;;;2.87;1.10;;;3.90;99.90;;;;;;5002270;28;21425;-83
2023/12/21 03:06:25;;;;;;;2.27;1.20;;;3.80;99.90;;;;;;5001278;28;20053;-83
2023/12/21 03:08:51;;;;;;;1.40;1.00;;;3.70;99.90;;;;;;5003601;28;21463;-83
2023/12/21 03:11:16;;;;;;;0.80;0.80;;;3.70;99.90;;;;;;5009605;28;20034;-83
2023/12/21 03:13:42;;;;;;;1.53;1.10;;;3.70;99.90;;;;;;5007172;28;20034;-83
2023/12/21 03:16:07;;;;;;;0.90;0.90;;;3.60;99.90;;;;;;4990407;28;20044;-82
2023/12/21 03:18:33;;;;;;;1.33;1.10;;;3.50;99.90;;;;;;5006202;28;20034;-83
2023/12/21 03:20:59;;;;;;;1.20;1.00;;;3.60;99.90;;;;;;5001513;28;20076;-83
2023/12/21 03:23:24;;;;;;;1.17;0.93;;;3.50;99.90;;;;;;4984761;28;20026;-83
2023/12/21 03:25:50;;;;;;;1.43;1.17;;;3.60;99.90;;;;;;5000190;28;20026;-85
2023/12/21 03:28:15;;;;;;;2.17;1.00;;;3.50;99.90;;;;;;5002411;28;20034;-83
2023/12/21 03:30:41;;;;;;;1.60;1.00;;;3.60;99.90;;;;;;5002393;28;20562;-83
2023/12/21 03:33:07;;;;;;;1.47;1.00;;;3.60;99.90;;;;;;4984348;28;20138;-83
2023/12/21 03:35:32;;;;;;;1.13;1.00;;;3.70;99.90;;;;;;5000787;28;20121;-83
2023/12/21 03:37:58;;;;;;;3.13;0.90;;;3.60;99.90;;;;;;5001880;28;20037;-82
2023/12/21 03:40:23;;;;;;;1.40;1.00;;;3.60;99.90;;;;;;5004416;28;20026;-83
2023/12/21 03:42:52;;;;;;;2.27;1.23;;;3.60;99.90;;;;;;5003257;28;20045;-83
2023/12/21 03:45:18;;;;;;;1.87;1.13;;;3.70;99.90;;;;;;5001417;28;20119;-83
2023/12/21 03:47:44;;;;;;;1.10;1.00;;;3.70;99.90;;;;;;4998591;28;20515;-83
2023/12/21 03:50:10;;;;;;;2.50;1.00;;;3.80;99.90;;;;;;4999701;28;20034;-82
2023/12/21 03:52:35;;;;;;;1.00;0.90;;;3.80;99.90;;;;;;5000296;28;20030;-83
2023/12/21 03:55:00;;;;;;;0.80;0.73;;;3.80;99.90;;;;;;5000228;28;20030;-82
2023/12/21 03:57:26;;;;;;;2.67;1.00;;;3.80;99.90;;;;;;5002008;28;20681;-83
2023/12/21 03:59:51;;;;;;;1.50;0.90;;;3.80;99.90;;;;;;5000278;28;20033;-82
2023/12/21 04:02:17;;;;;;;3.23;1.83;;;3.90;99.90;;;;;;4964881;28;1034561;-82
2023/12/21 04:04:42;;;;;;;1.00;0.90;;;3.90;99.90;;;;;;5002603;28;20528;-82
2023/12/21 04:07:09;;;;;;;1.10;1.00;;;4.00;99.90;;;;;;5001406;28;20523;-83
2023/12/21 04:09:35;;;;;;;2.10;0.97;;;4.10;99.90;;;;;;5002980;28;20022;-83
2023/12/21 04:12:00;;;;;;;0.80;0.80;;;4.10;99.90;;;;;;5002021;28;20026;-83
2023/12/21 04:14:26;;;;;;;0.70;0.70;;;4.10;99.90;;;;;;5002008;28;20040;-82
2023/12/21 04:16:52;;;;;;;0.60;0.60;;;4.10;99.90;;;;;;5000732;28;20511;-83
2023/12/21 04:19:18;;;;;;;0.80;0.70;;;4.10;99.90;;;;;;4999728;28;20030;-82
2023/12/21 04:21:44;;;;;;;0.80;0.80;;;4.20;99.90;;;;;;5002496;28;20026;-83
2023/12/21 04:24:10;;;;;;;0.73;0.73;;;4.20;99.90;;;;;;4982650;28;20130;-83
2023/12/21 04:26:35;;;;;;;0.60;0.60;;;4.20;99.90;;;;;;5001181;28;20034;-82
2023/12/21 04:29:01;;;;;;;0.53;0.53;;;4.30;99.90;;;;;;5001572;28;20034;-82
2023/12/21 04:31:26;;;;;;;0.60;0.60;;;4.20;99.90;;;;;;5003222;28;20034;-82
2023/12/21 04:33:52;;;;;;;0.67;0.67;;;4.30;99.90;;;;;;5004039;28;20070;-81
2023/12/21 04:36:19;;;;;;;0.70;0.70;;;4.30;99.90;;;;;;5002077;28;21411;-82
2023/12/21 04:38:44;;;;;;;1.00;0.70;;;4.40;99.90;;;;;;5001312;28;20033;-82
2023/12/21 04:41:10;;;;;;;0.90;0.70;;;4.40;99.90;;;;;;5004422;28;20034;-82
2023/12/21 04:43:36;;;;;;;0.63;0.63;;;4.40;99.90;;;;;;4987116;28;20560;-82
2023/12/21 04:46:03;;;;;;;0.60;0.60;;;4.50;99.90;;;;;;5004047;28;20030;-82
2023/12/21 04:48:29;;;;;;;0.70;0.70;;;4.50;99.90;;;;;;5002547;28;20041;-83
2023/12/21 04:50:54;;;;;;;0.60;0.60;;;4.50;99.90;;;;;;5000229;28;20038;-82
2023/12/21 04:53:20;;;;;;;0.70;0.70;;;4.50;99.90;;;;;;5000630;28;20095;-82
2023/12/21 04:55:45;;;;;;;0.97;0.70;;;4.50;99.90;;;;;;5001470;28;20451;-82
2023/12/21 04:58:11;;;;;;;0.70;0.70;;;4.60;99.90;;;;;;5000223;28;20108;-82
2023/12/21 05:00:40;;;;;;;1.77;0.70;;;4.60;99.90;;;;;;5000387;28;20027;-83
2023/12/21 05:03:05;;;;;;;0.70;0.70;;;4.70;99.90;;;;;;5000883;28;20037;-82
2023/12/21 05:05:31;;;;;;;0.80;0.70;;;4.70;99.90;;;;;;5000989;28;20038;-82
2023/12/21 05:07:56;;;;;;;0.60;0.60;;;4.70;99.90;;;;;;5002219;28;20492;-83
2023/12/21 05:10:22;;;;;;;1.07;0.80;;;4.80;99.90;;;;;;4984579;28;20049;-82
2023/12/21 05:12:49;;;;;;;1.13;0.90;;;4.80;99.90;;;;;;5001042;28;20042;-82
2023/12/21 05:15:14;;;;;;;0.60;0.60;;;4.80;99.90;;;;;;4997180;28;20026;-82
2023/12/21 05:17:40;;;;;;;0.97;0.70;;;4.80;99.90;;;;;;4999121;28;20048;-81
2023/12/21 05:20:07;;;;;;;0.80;0.70;;;4.80;99.90;;;;;;5000685;28;20033;-82
2023/12/21 05:22:33;;;;;;;0.70;0.70;;;4.80;99.90;;;;;;5004919;28;20145;-81
2023/12/21 05:24:58;;;;;;;1.47;0.60;;;4.80;99.90;;;;;;5002782;28;20030;-82
2023/12/21 05:27:24;;;;;;;1.00;0.80;;;4.80;99.90;;;;;;5005402;28;20042;-82
2023/12/21 05:29:49;;;;;;;1.87;1.40;;;4.70;99.90;;;;;;5007307;28;20044;-81
2023/12/21 05:32:15;;;;;;;1.07;0.80;;;4.70;99.90;;;;;;5003014;28;20227;-82
2023/12/21 05:34:40;;;;;;;0.70;0.70;;;4.70;99.90;;;;;;5001790;28;20128;-81
2023/12/21 05:37:06;;;;;;;0.80;0.80;;;4.70;99.90;;;;;;5001046;28;20030;-82
2023/12/21 05:39:32;;;;;;;0.93;0.77;;;4.70;99.90;;;;;;5001037;28;20045;-82
2023/12/21 05:41:57;;;;;;;1.43;0.80;;;4.80;99.90;;;;;;5000725;28;20033;-82
2023/12/21 05:44:23;;;;;;;0.80;0.80;;;4.80;99.90;;;;;;5002445;28;20034;-81
2023/12/21 05:46:48;;;;;;;0.93;0.83;;;4.80;99.90;;;;;;4982473;28;20034;-82
2023/12/21 05:49:14;;;;;;;0.63;0.60;;;4.90;99.90;;;;;;4998989;28;20128;-81
2023/12/21 05:51:39;;;;;;;0.90;0.80;;;4.90;99.90;;;;;;4999326;28;20049;-77
2023/12/21 05:54:05;;;;;;;0.80;0.80;;;4.90;99.90;;;;;;4999455;28;20512;-79
2023/12/21 05:56:30;;;;;;;0.60;0.60;;;4.90;99.90;;;;;;4996010;28;20147;-79
2023/12/21 05:58:56;;;;;;;1.03;0.90;;;5.00;99.90;;;;;;4996119;28;20025;-79
2023/12/21 06:01:21;;;;;;;1.53;0.80;;;5.00;99.90;;;;;;4998983;28;20051;-81
2023/12/21 06:03:47;;;;;;;2.40;1.20;;;5.10;99.90;;;;;;4986994;28;20038;-80
2023/12/21 06:06:15;;;;;;;0.60;0.60;;;5.10;99.90;;;;;;4999906;28;20115;-79
2023/12/21 06:08:41;;;;;;;2.07;0.80;;;5.10;99.90;;;;;;4981563;28;20036;-80
2023/12/21 06:11:06;;;;;;;0.80;0.70;;;5.20;99.90;;;;;;5001094;28;20030;-80
2023/12/21 06:13:33;;;;;;;1.33;0.80;;;5.20;99.90;;;;;;5004579;28;20096;-80
2023/12/21 06:15:59;;;;;;;0.77;0.77;;;5.20;99.90;;;;;;5004410;28;20034;-80
2023/12/21 06:18:25;;;;;;;0.93;0.80;;;5.20;99.90;;;;;;5005275;28;20105;-80
2023/12/21 06:20:50;;;;;;;3.70;0.80;;;5.30;99.90;;;;;;5005397;28;20117;-80
2023/12/21 06:23:16;;;;;;;1.00;0.90;;;5.30;99.90;;;;;;5005621;28;20060;-79
2023/12/21 06:25:42;;;;;;;0.80;0.80;;;5.40;99.90;;;;;;5006990;28;20030;-80
2023/12/21 06:28:07;;;;;;;0.80;0.80;;;5.40;99.90;;;;;;4985588;28;20022;-80
2023/12/21 06:30:33;;;;;;;0.97;0.77;;;5.40;99.90;;;;;;5005659;28;20053;-79
2023/12/21 06:32:58;;;;;;;0.63;0.63;;;5.50;99.90;;;;;;4989425;28;20058;-80
2023/12/21 06:35:24;;;;;;;1.50;0.70;;;5.60;99.90;;;;;;5006883;28;20033;-79
2023/12/21 06:37:49;;;;;;;1.10;0.70;;;5.60;99.90;;;;;;5006680;28;20135;-79
2023/12/21 06:40:15;;;;;;;0.67;0.67;;;5.60;99.90;;;;;;4989686;28;20052;-80
2023/12/21 06:42:40;;;;;;;1.33;0.77;;;5.60;99.90;;;;;;5007765;28;20033;-82
2023/12/21 06:45:06;;;;;;;0.70;0.70;;;5.60;99.90;;;;;;5006981;28;20026;-81
2023/12/21 06:47:32;;;;;;;0.83;0.80;;;5.70;99.90;;;;;;5005624;28;20093;-80
2023/12/21 06:49:57;;;;;;;0.97;0.80;;;5.70;99.90;;;;;;5006918;28;20044;-80
2023/12/21 06:52:23;;;;;;;0.83;0.80;;;5.70;99.90;;;;;;5006495;28;20033;-80
2023/12/21 06:54:48;;;;;;;0.70;0.70;;;5.70;99.90;;;;;;5006165;28;20073;-81
2023/12/21 06:57:15;;;;;;;0.90;0.50;;;5.70;99.90;;;;;;5007636;28;20025;-80
2023/12/21 06:59:41;;;;;;;1.43;0.83;;;5.70;99.90;;;;;;5005952;28;20052;-80
2023/12/21 07:02:06;;;;;;;0.60;0.60;;;5.80;99.90;;;;;;5006129;28;20121;-80
2023/12/21 07:04:32;;;;;;;1.13;0.70;;;5.80;99.90;;;;;;5006118;28;20069;-80
2023/12/21 07:06:58;;;;;;;1.23;0.70;;;5.80;99.90;;;;;;4999945;28;20124;-85
2023/12/21 07:09:24;;;;;;;0.60;0.60;;;5.80;99.90;;;;;;5002688;28;20022;-86
2023/12/21 07:11:49;;;;;;;0.83;0.70;;;5.90;99.90;;;;;;4986340;28;20040;-86
2023/12/21 07:14:15;;;;;;;1.63;0.97;;;6.00;99.90;;;;;;5006241;28;20383;-84
2023/12/21 07:16:41;;;;;;;1.03;0.80;;;6.10;99.90;;;;;;5003897;28;20037;-85
2023/12/21 07:19:06;;;;;;;1.90;0.70;;;6.10;99.90;;;;;;5003256;28;20163;-83
2023/12/21 07:21:32;;;;;;;1.10;0.90;;;6.10;99.90;;;;;;5005036;28;20952;-85
2023/12/21 07:23:57;;;;;;;1.20;0.70;;;6.10;99.90;;;;;;5003162;28;20066;-80
2023/12/21 07:26:24;;;;;;;0.80;0.70;;;6.10;99.90;;;;;;5003444;28;20034;-80
2023/12/21 07:28:50;;;;;;;1.07;0.83;;;6.20;99.90;;;;;;5003584;28;20060;-81
2023/12/21 07:31:17;;;;;;;0.60;0.60;;;6.20;99.90;;;;;;5003786;28;20123;-79
2023/12/21 07:33:42;;;;;;;0.70;0.63;;;6.20;99.90;;;;;;5003084;28;20049;-79
2023/12/21 07:36:08;;;;;;;0.70;0.70;;;6.20;99.90;;;;;;5006568;28;20405;-80
2023/12/21 07:38:35;;;;;;;0.63;0.63;;;6.20;99.90;;;;;;5007795;28;20238;-80
2023/12/21 07:41:01;;;;;;;0.93;0.80;;;6.30;99.90;;;;;;5004117;28;20549;-79
2023/12/21 07:43:26;;;;;;;0.70;0.70;;;6.30;99.90;;;;;;5007692;28;20052;-80
2023/12/21 07:45:52;;;;;;;0.60;0.60;;;6.30;99.90;;;;;;5003227;28;20038;-80
2023/12/21 07:48:18;;;;;;;1.93;0.70;;;6.30;99.90;;;;;;5005486;28;20461;-80
2023/12/21 07:50:43;;;;;;;0.67;0.67;;;6.40;99.90;;;;;;5004813;28;20049;-80
2023/12/21 07:53:09;;;;;;;0.80;0.77;;;6.50;99.90;;;;;;5004915;28;20075;-80
2023/12/21 07:55:34;;;;;;;4.73;0.70;;;6.50;99.90;;;;;;5007084;28;20426;-80
2023/12/21 07:58:00;;;;;;;0.90;0.80;;;6.50;99.90;;;;;;5002656;28;20014;-79
2023/12/21 08:00:26;;;;;;;2.20;1.50;;;6.50;99.90;;;;;;4992977;28;20612;-79
2023/12/21 08:02:52;;;;;;;0.70;0.70;;;6.50;99.90;;;;;;4999282;28;20049;-80
2023/12/21 08:05:19;;;;;;;0.80;0.70;;;6.60;99.90;;;;;;4999290;28;20034;-80
2023/12/21 08:07:44;;;;;;;0.90;0.70;;;6.60;99.90;;;;;;4997755;28;20026;-80
2023/12/21 08:10:10;;;;;;;0.70;0.70;;;6.60;99.90;;;;;;4999764;28;20067;-81
2023/12/21 08:12:36;;;;;;;0.60;0.60;;;6.70;99.90;;;;;;5006267;28;20022;-80
2023/12/21 08:15:02;;;;;;;1.07;0.70;;;6.60;99.90;;;;;;4999727;28;20040;-80
2023/12/21 08:17:28;;;;;;;0.80;0.70;;;6.60;99.90;;;;;;5001179;28;20037;-79
2023/12/21 08:19:55;;;;;;;0.80;0.80;;;6.60;99.90;;;;;;5004790;28;20042;-80
2023/12/21 08:22:22;;;;;;;0.83;0.70;;;6.60;99.90;;;;;;5001163;28;20030;-81
2023/12/21 08:24:48;;;;;;;0.70;0.70;;;6.60;99.90;;;;;;5002549;28;20029;-79
2023/12/21 08:27:14;;;;;;;0.60;0.60;;;6.70;99.90;;;;;;5004549;28;20056;-79
2023/12/21 08:29:40;;;;;;;0.60;0.60;;;6.70;99.90;;;;;;5000096;28;20030;-79
2023/12/21 08:32:05;;;;;;;0.53;0.53;;;6.80;99.90;;;;;;5002237;28;20037;-79
2023/12/21 08:34:31;;;;;;;0.70;0.60;;;6.80;99.90;;;;;;5005930;28;20182;-79
2023/12/21 08:36:57;;;;;;;0.77;0.77;;;6.80;99.90;;;;;;5007870;28;20044;-79
2023/12/21 08:39:24;;;;;;;0.90;0.80;;;6.80;99.90;;;;;;5008861;28;20052;-80
2023/12/21 08:41:49;;;;;;;0.60;0.60;;;6.80;99.90;;;;;;5008335;28;20034;-80
2023/12/21 08:44:15;;;;;;;0.73;0.60;;;6.80;99.90;;;;;;5003438;28;20100;-79
2023/12/21 08:46:42;;;;;;;0.60;0.60;;;6.80;99.90;;;;;;5002879;28;20505;-79
2023/12/21 08:49:10;;;;;;;0.70;0.70;;;6.80;99.90;;;;;;5004886;28;20057;-80
2023/12/21 08:51:37;;;;;;;2.40;1.10;;;6.80;99.90;;;;;;5003740;28;20477;-80
2023/12/21 08:54:03;;;;;;;1.90;0.80;;;6.80;99.90;;;;;;5005615;28;20215;-79
2023/12/21 08:56:30;;;;;;;1.17;0.80;;;6.80;99.90;;;;;;4987672;28;20049;-80
2023/12/21 08:58:56;;;;;;;1.20;0.70;;;6.80;99.90;;;;;;5005178;28;20026;-81
2023/12/21 09:01:22;;;;;;;0.60;0.60;;;6.80;99.90;;;;;;5005633;28;20056;-80
2023/12/21 09:03:47;;;;;;;1.53;0.77;;;6.90;99.90;;;;;;5005447;28;20528;-80
2023/12/21 09:06:13;;;;;;;2.63;0.80;;;6.90;99.90;;;;;;5005508;28;20122;-81
2023/12/21 09:08:38;;;;;;;1.00;0.70;;;6.90;99.90;;;;;;5004834;28;20034;-80
2023/12/21 09:11:05;;;;;;;0.70;0.63;;;7.00;99.90;;;;;;5005226;28;20155;-81
2023/12/21 09:13:30;;;;;;;1.20;0.80;;;7.00;99.90;;;;;;5000348;28;20448;-80
2023/12/21 09:15:56;;;;;;;5.70;0.73;;;7.00;99.90;;;;;;4997545;28;20037;-80
2023/12/21 09:18:22;;;;;;;0.90;0.70;;;7.00;99.90;;;;;;4999806;28;20044;-80
2023/12/21 09:20:47;;;;;;;3.77;1.20;;;7.10;99.90;;;;;;4999598;28;20045;-80
2023/12/21 09:23:13;;;;;;;0.60;0.60;;;7.20;99.90;;;;;;4999062;28;20022;-81
2023/12/21 09:25:39;;;;;;;0.90;0.70;;;7.20;99.90;;;;;;4999663;28;20033;-80
2023/12/21 09:28:05;;;;;;;0.90;0.77;;;7.20;99.90;;;;;;4998185;28;20033;-80
2023/12/21 09:30:30;;;;;;;0.83;0.70;;;7.20;99.90;;;;;;4999491;28;20037;-80
2023/12/21 09:32:59;;;;;;;0.80;0.70;;;7.30;99.90;;;;;;4999992;28;21419;-81
2023/12/21 09:35:24;;;;;;;1.60;0.73;;;7.20;99.90;;;;;;4999752;28;20040;-80
2023/12/21 09:37:52;;;;;;;2.13;0.73;;;7.20;99.90;;;;;;4998308;28;20030;-79
2023/12/21 09:40:18;;;;;;;2.90;0.80;;;7.20;99.90;;;;;;4982658;28;20037;-81
2023/12/21 09:42:46;;;;;;;1.10;0.77;;;7.20;99.90;;;;;;4999416;28;20029;-80
2023/12/21 09:45:13;;;;;;;0.60;0.60;;;7.20;99.90;;;;;;5001020;28;20033;-81
2023/12/21 09:47:42;;;;;;;1.43;0.77;;;7.20;99.90;;;;;;4988052;28;20049;-80
2023/12/21 09:50:08;;;;;;;0.77;0.70;;;7.20;99.90;;;;;;5007095;28;20044;-80
2023/12/21 09:52:37;;;;;;;0.60;0.60;;;7.40;99.90;;;;;;5005744;28;20120;-80
2023/12/21 09:55:05;;;;;;;1.03;0.80;;;7.40;99.90;;;;;;5006812;28;20029;-80
2023/12/21 09:57:34;;;;;;;1.00;0.70;;;7.30;99.90;;;;;;5002266;28;20501;-80
2023/12/21 10:00:01;;;;;;;0.70;0.70;;;7.40;99.90;;;;;;5003516;28;20030;-80
2023/12/21 10:02:30;;;;;;;1.83;1.10;;;7.40;99.90;;;;;;5003571;28;20082;-81
2023/12/21 10:04:56;;;;;;;3.03;0.70;;;7.30;99.90;;;;;;5001800;28;20520;-80
2023/12/21 10:07:22;;;;;;;2.00;1.40;;;7.30;99.90;;;;;;5001421;28;20034;-80
2023/12/21 10:09:48;;;;;;;1.80;1.00;;;7.20;99.90;;;;;;5003109;28;20109;-80
2023/12/21 10:12:14;;;;;;;1.63;0.90;;;7.30;99.90;;;;;;5003407;28;20575;-79
2023/12/21 10:14:40;;;;;;;1.17;0.90;;;7.20;99.90;;;;;;5005611;28;20038;-80
2023/12/21 10:17:09;;;;;;;1.40;0.70;;;7.20;99.90;;;;;;4984863;28;20029;-80
2023/12/21 10:19:36;;;;;;;0.93;0.80;;;7.30;99.90;;;;;;4983901;28;20040;-81
2023/12/21 10:22:01;;;;;;;0.80;0.70;;;7.30;99.90;;;;;;5003126;28;20492;-81
2023/12/21 10:24:27;;;;;;;0.90;0.80;;;7.30;99.90;;;;;;5003278;28;20037;-80
2023/12/21 10:26:53;;;;;;;0.90;0.80;;;7.30;99.90;;;;;;5002080;28;20034;-81
2023/12/21 10:29:19;;;;;;;0.97;0.70;;;7.30;99.90;;;;;;5002306;28;20076;-80
2023/12/21 10:31:45;;;;;;;1.23;0.70;;;7.30;99.90;;;;;;5002795;28;20116;-80
2023/12/21 10:34:12;;;;;;;1.93;1.10;;;7.30;99.90;;;;;;5002812;28;20045;-81
2023/12/21 10:36:43;;;;;;;0.80;0.70;;;7.30;99.90;;;;;;5002218;28;20018;-80
2023/12/21 10:39:16;;;;;;;0.90;0.70;;;7.40;99.90;;;;;;5004681;28;20029;-80
2023/12/21 10:41:43;;;;;;;4.33;0.70;;;7.40;99.90;;;;;;5002165;28;20036;-81
2023/12/21 10:44:12;;;;;;;0.70;0.70;;;7.40;99.90;;;;;;5002397;28;20985;-80
2023/12/21 10:46:39;;;;;;;1.30;0.73;;;7.50;99.90;;;;;;5002629;28;20155;-81
2023/12/21 10:49:07;;;;;;;0.93;0.70;;;7.50;99.90;;;;;;5002305;28;20180;-80
2023/12/21 10:51:37;;;;;;;0.70;0.70;;;7.50;99.90;;;;;;5004551;28;20489;-79
2023/12/21 10:54:06;;;;;;;1.37;0.70;;;7.60;99.90;;;;;;5002551;28;20044;-80
2023/12/21 10:56:32;;;;;;;0.70;0.70;;;7.60;99.90;;;;;;4984131;28;20031;-80
2023/12/21 10:59:01;;;;;;;1.03;0.80;;;7.60;99.90;;;;;;5002070;28;20041;-81
2023/12/21 11:01:29;;;;;;;2.30;0.80;;;7.70;99.90;;;;;;5000518;28;20497;-80
2023/12/21 11:03:59;;;;;;;1.20;0.70;;;7.80;99.90;;;;;;4997885;28;20040;-80
2023/12/21 11:06:26;;;;;;;1.13;0.70;;;7.70;99.90;;;;;;5002587;28;20117;-81
2023/12/21 11:08:53;;;;;;;0.67;0.60;;;7.80;99.90;;;;;;5002123;28;20032;-80
2023/12/21 11:11:22;;;;;;;1.20;0.70;;;7.80;99.90;;;;;;5001255;28;20099;-80
2023/12/21 11:13:55;;;;;;;1.97;0.67;;;7.80;99.90;;;;;;5004922;28;20033;-80
2023/12/21 11:16:28;;;;;;;4.07;1.00;;;7.90;99.90;;;;;;5003857;28;20099;-80
2023/12/21 11:18:57;;;;;;;0.87;0.70;;;8.00;99.90;;;;;;5002652;28;21405;-80
2023/12/21 11:21:26;;;;;;;0.70;0.70;;;7.90;99.90;;;;;;5001717;28;20421;-80
2023/12/21 11:23:52;;;;;;;1.43;0.80;;;8.00;99.90;;;;;;5002149;28;20072;-80
2023/12/21 11:26:21;;;;;;;2.63;0.73;;;7.90;99.90;;;;;;5000275;28;20026;-81
2023/12/21 11:28:47;;;;;;;4.27;0.70;;;8.10;99.90;;;;;;5001545;28;20890;-81
2023/12/21 11:31:16;;;;;;;1.00;0.80;;;8.00;99.90;;;;;;5002367;28;20030;-81
2023/12/21 11:33:42;;;;;;;0.60;0.60;;;8.00;99.90;;;;;;5001609;28;20412;-80
2023/12/21 11:36:08;;;;;;;0.73;0.73;;;8.00;99.90;;;;;;5003083;28;20037;-81
2023/12/21 11:38:46;;;;;;;2.13;0.70;;;8.00;99.90;;;;;;5001280;28;20743;-82
2023/12/21 11:41:14;;;;;;;2.73;0.70;;;8.00;99.90;;;;;;5001756;28;20037;-80
2023/12/21 11:43:40;;;;;;;1.30;0.67;;;8.00;99.90;;;;;;5001284;28;20034;-80
2023/12/21 11:46:09;;;;;;;1.53;0.70;;;7.90;99.90;;;;;;5002252;28;20030;-82
2023/12/21 11:48:37;;;;;;;0.80;0.70;;;7.90;99.90;;;;;;4997175;28;20060;-80
2023/12/21 11:51:03;;;;;;;3.20;0.70;;;7.90;99.90;;;;;;4997750;28;20037;-81
2023/12/21 11:53:29;;;;;;;1.07;0.70;;;7.90;99.90;;;;;;4980903;28;20370;-81
2023/12/21 11:55:55;;;;;;;1.23;0.73;;;7.90;99.90;;;;;;4998519;28;20087;-82
2023/12/21 11:58:26;;;;;;;0.77;0.70;;;7.90;99.90;;;;;;4998331;28;20112;-81
2023/12/21 12:00:53;;;;;;;1.63;0.80;;;7.90;99.90;;;;;;5002452;28;20048;-81
2023/12/21 12:03:21;;;;;;;1.10;0.70;;;7.90;99.90;;;;;;5003956;28;20030;-80
2023/12/21 12:05:53;;;;;;;2.43;0.80;;;7.90;99.90;;;;;;5002668;28;20515;-81
2023/12/21 12:08:25;;;;;;;0.77;0.60;;;7.90;99.90;;;;;;5002146;28;20037;-80
2023/12/21 12:10:52;;;;;;;1.60;0.80;;;7.90;99.90;;;;;;5001934;28;20039;-81
2023/12/21 12:13:19;;;;;;;1.07;0.70;;;7.90;99.90;;;;;;5002718;28;20059;-81
2023/12/21 12:15:47;;;;;;;0.50;0.50;;;7.90;99.90;;;;;;4990480;28;20018;-80
2023/12/21 12:18:16;;;;;;;1.20;0.67;;;7.90;99.90;;;;;;5002546;28;20021;-81
2023/12/21 12:20:46;;;;;;;0.93;0.87;;;7.90;99.90;;;;;;5001485;28;20093;-80
2023/12/21 12:23:12;;;;;;;0.77;0.77;;;7.90;99.90;;;;;;5001908;28;20053;-81
2023/12/21 12:25:38;;;;;;;1.37;0.70;;;8.00;99.90;;;;;;5002524;28;20085;-80
2023/12/21 12:28:04;;;;;;;3.40;0.63;;;8.00;99.90;;;;;;5002011;28;20106;-80
2023/12/21 12:30:30;;;;;;;0.80;0.70;;;8.00;99.90;;;;;;5002910;28;20123;-80
2023/12/21 12:32:56;;;;;;;0.60;0.60;;;8.10;99.90;;;;;;5002294;28;20057;-80
2023/12/21 12:35:22;;;;;;;0.80;0.80;;;8.10;99.90;;;;;;5001531;28;20029;-80
2023/12/21 12:37:48;;;;;;;1.00;0.90;;;8.10;99.90;;;;;;5002581;28;20024;-81
2023/12/21 12:40:14;;;;;;;1.07;0.67;;;8.00;99.90;;;;;;5001436;28;20080;-81
2023/12/21 12:42:39;;;;;;;5.30;0.70;;;8.00;99.90;;;;;;4999753;28;20400;-81
2023/12/21 12:45:07;;;;;;;0.80;0.60;;;8.10;99.90;;;;;;5001085;28;20022;-81
2023/12/21 12:47:34;;;;;;;0.70;0.70;;;8.00;99.90;;;;;;5000349;28;20075;-80
2023/12/21 12:50:00;;;;;;;1.17;0.80;;;8.00;99.90;;;;;;5000994;28;20033;-80
2023/12/21 12:52:37;;;;;;;1.60;0.70;;;8.10;99.90;;;;;;5000519;28;20025;-80